Georgetown, Delaware
Current Conditions -  °F | °C
As of 7:54 PM on Wednesday 17 Dec 2014 (Local Time) from KGED Reporting Station
Clear Clear  
Wind Chill: 45°   Ceiling: Unl
Heat Index: 45°   Visibility: 10mi
Dew Point: 29°   Wind: 3mph
Humidity: 53%   Direction: 320°NW
Pressure: 30"   Gusts: NA
Location:  38.69°N, 75.39°W
Report Text: KGED 180054Z AUTO 32003KT 10SM CLR 07/M02 A3000 RMK AO2 SLP160 T00721017
Loading
Personal Weather Stations






























Interactive Weather Map New forecast layout! Learn more

10-Day Weather Forecast

Advertisements
Track Severe Weather on mobile